Joint Base Elmendorf-Richardson, Alaska
Current Conditions -  °F | °C
As of 4:58 AM on Friday 19 Dec 2014 (Local Time) from PAED Reporting Station
Overcast Overcast  
Wind Chill: 19°   Ceiling: 10000
Heat Index: 19°   Visibility: 10mi
Dew Point: 16°   Wind: 3mph
Humidity: 85%   Direction: 100°E
Pressure: 29.19"   Gusts: NA
Location:  61.25°N, 149.81°W
Report Text: PAED 191358Z AUTO 10003KT 10SM BKN100 OVC120 M07/M09 A2919 RMK AO2 SLP883 T10701091
Loading
Personal Weather Stations






























Interactive Weather Map New forecast layout! Learn more

10-Day Weather Forecast

Advertisements
Track Severe Weather on mobile